Time;durP1;ratioP1;P1;durP2;ratioP2;P2;SDS_P1;SDS_P2;PMS_P1;PMS_P2;Temp;Humidity;BMP_temperature;BMP_pressure;BME280_temperature;BME280_humidity;BME280_pressure;Samples;Min_cycle;Max_cycle;Signal;HPM_P1;HPM_P2
2023/03/12 00:00:17;;;;;;;8.80;4.15;;;;;;;-142.70;100.00;60390.16;4889024;29;20033;-75
2023/03/12 00:02:43;;;;;;;6.53;4.15;;;;;;;-142.70;100.00;60390.16;4887971;29;20029;-75
2023/03/12 00:05:08;;;;;;;9.40;4.10;;;;;;;-142.70;100.00;60390.16;4888501;29;20104;-75
2023/03/12 00:07:35;;;;;;;4.97;3.70;;;;;;;-142.70;100.00;60390.16;4888446;29;20055;-74
2023/03/12 00:10:02;;;;;;;11.30;3.70;;;;;;;-142.70;100.00;60390.16;4887949;29;20039;-74
2023/03/12 00:12:27;;;;;;;5.22;3.17;;;;;;;-142.70;100.00;60390.16;4887275;29;20044;-74
2023/03/12 00:14:53;;;;;;;6.57;3.50;;;;;;;-142.70;100.00;60390.16;4878088;29;20546;-73
2023/03/12 00:17:19;;;;;;;5.10;3.55;;;;;;;-142.70;100.00;60390.16;4867987;29;20032;-74
2023/03/12 00:19:44;;;;;;;4.57;3.83;;;;;;;-142.70;100.00;60390.16;4898228;29;20135;-73
2023/03/12 00:22:10;;;;;;;7.97;3.33;;;;;;;-142.70;100.00;60390.16;4907263;29;20177;-75
2023/03/12 00:24:35;;;;;;;4.45;3.50;;;;;;;-142.70;100.00;60390.16;4906383;29;20032;-74
2023/03/12 00:27:00;;;;;;;8.85;3.50;;;;;;;-142.70;100.00;60390.16;4889728;29;20491;-75
2023/03/12 00:29:26;;;;;;;5.75;3.38;;;;;;;-142.70;100.00;60390.16;4873401;29;20541;-74
2023/03/12 00:31:51;;;;;;;6.57;3.88;;;;;;;-142.70;100.00;60390.16;4896534;29;20111;-75
2023/03/12 00:34:17;;;;;;;8.00;3.42;;;;;;;-142.70;100.00;60390.16;4889866;29;20099;-74
2023/03/12 00:36:42;;;;;;;7.25;3.40;;;;;;;-142.70;100.00;60390.16;4888614;29;20139;-75
2023/03/12 00:39:08;;;;;;;3.85;3.40;;;;;;;-142.70;100.00;60390.16;4888720;29;20028;-75
2023/03/12 00:41:34;;;;;;;5.68;3.40;;;;;;;-142.70;100.00;60390.16;4905888;29;20043;-74
2023/03/12 00:43:59;;;;;;;4.07;3.58;;;;;;;-142.70;100.00;60390.16;4906502;29;20055;-73
2023/03/12 00:46:25;;;;;;;6.72;3.78;;;;;;;-142.70;100.00;60390.16;4906943;29;20511;-74
2023/03/12 00:48:51;;;;;;;7.95;4.72;;;;;;;-142.70;100.00;60390.16;4875747;29;20095;-75
2023/03/12 00:51:16;;;;;;;8.20;3.70;;;;;;;-142.70;100.00;60390.16;4889894;29;20074;-73
2023/03/12 00:53:42;;;;;;;7.60;4.32;;;;;;;-142.70;100.00;60390.16;4905333;29;20028;-74
2023/03/12 00:56:07;;;;;;;5.70;3.67;;;;;;;-142.70;100.00;60390.16;4889638;29;20059;-74
2023/03/12 00:58:33;;;;;;;5.00;4.60;;;;;;;-142.70;100.00;60390.16;4875051;29;20417;-74
2023/03/12 01:00:58;;;;;;;5.47;4.95;;;;;;;-142.70;100.00;60390.16;4906425;29;20410;-75
2023/03/12 01:03:24;;;;;;;9.55;5.28;;;;;;;-142.70;100.00;60390.16;4906027;29;20040;-73
2023/03/12 01:05:53;;;;;;;9.65;5.18;;;;;;;-142.70;100.00;60390.16;4875455;29;20114;-75
2023/03/12 01:08:19;;;;;;;6.95;4.45;;;;;;;-142.70;100.00;60390.16;4875099;29;20139;-74
2023/03/12 01:10:44;;;;;;;6.45;5.68;;;;;;;-142.70;100.00;60390.16;4888167;29;20082;-74
2023/03/12 01:13:10;;;;;;;5.68;5.18;;;;;;;-142.70;100.00;60390.16;4889541;29;20502;-74
2023/03/12 01:15:36;;;;;;;8.05;5.00;;;;;;;-142.70;100.00;60390.16;4888024;29;20065;-74
2023/03/12 01:18:01;;;;;;;6.80;5.07;;;;;;;-142.70;100.00;60390.16;4906495;29;20036;-74
2023/03/12 01:20:27;;;;;;;7.85;5.78;;;;;;;-142.70;100.00;60390.16;4888134;29;20131;-74
2023/03/12 01:22:52;;;;;;;6.90;5.65;;;;;;;-142.70;100.00;60390.16;4860364;29;20129;-74
2023/03/12 01:25:18;;;;;;;8.68;5.40;;;;;;;-142.70;100.00;60390.16;4888791;29;20039;-74
2023/03/12 01:27:44;;;;;;;7.30;6.60;;;;;;;-142.70;100.00;60390.16;4888335;29;20024;-74
2023/03/12 01:30:10;;;;;;;6.55;5.80;;;;;;;-142.70;100.00;60390.16;4889068;29;20035;-74
2023/03/12 01:32:35;;;;;;;6.60;6.05;;;;;;;-142.70;100.00;60390.16;4887998;29;20032;-75
2023/03/12 01:35:01;;;;;;;6.45;5.75;;;;;;;-142.70;100.00;60390.16;4905723;29;20063;-74
2023/03/12 01:37:27;;;;;;;6.35;5.85;;;;;;;-142.70;100.00;60390.16;4887922;29;20228;-75
2023/03/12 01:39:52;;;;;;;12.48;6.00;;;;;;;-142.70;100.00;60390.16;4888279;29;20028;-74
2023/03/12 01:42:18;;;;;;;6.32;5.82;;;;;;;-142.70;100.00;60390.16;4887939;29;20421;-74
2023/03/12 01:45:01;;;;;;;7.57;5.75;;;;;;;-142.70;100.00;60390.16;4905315;29;20482;-74
2023/03/12 01:47:30;;;;;;;6.40;5.80;;;;;;;-142.70;100.00;60390.16;4881321;29;20096;-74
2023/03/12 01:49:57;;;;;;;6.60;6.10;;;;;;;-142.70;100.00;60390.16;4897394;29;20031;-74
2023/03/12 01:52:34;;;;;;;6.25;5.75;;;;;;;-142.70;100.00;60390.16;4876402;29;20043;-74
2023/03/12 01:55:18;;;;;;;6.13;5.53;;;;;;;-142.70;100.00;60390.16;4887337;29;20040;-75
2023/03/12 01:57:53;;;;;;;9.52;6.68;;;;;;;-142.70;100.00;60390.16;4888429;29;20453;-73
2023/03/12 02:00:22;;;;;;;7.75;6.22;;;;;;;-142.70;100.00;60390.16;4888361;29;20028;-75
2023/03/12 02:02:50;;;;;;;8.85;6.00;;;;;;;-142.70;100.00;60390.16;4887517;29;20123;-73
2023/03/12 02:05:26;;;;;;;7.80;5.88;;;;;;;-142.70;100.00;60390.16;4888292;29;20113;-73
2023/03/12 02:07:51;;;;;;;7.75;6.18;;;;;;;-142.70;100.00;60390.16;4904377;29;20107;-74
2023/03/12 02:10:17;;;;;;;12.30;6.85;;;;;;;-142.70;100.00;60390.16;4888408;29;20151;-74
2023/03/12 02:12:42;;;;;;;6.97;6.28;;;;;;;-142.70;100.00;60390.16;4887719;29;20028;-75
2023/03/12 02:15:10;;;;;;;7.85;6.68;;;;;;;-142.70;100.00;60390.16;4904271;29;20119;-74
2023/03/12 02:17:36;;;;;;;6.93;6.22;;;;;;;-142.70;100.00;60390.16;4903678;29;20031;-74
2023/03/12 02:20:27;;;;;;;9.52;6.20;;;;;;;-142.70;100.00;60390.16;4904119;29;20059;-73
2023/03/12 02:23:06;;;;;;;7.13;6.05;;;;;;;-142.70;100.00;60390.16;4871086;29;20675;-74
2023/03/12 02:25:54;;;;;;;7.07;6.45;;;;;;;-142.70;100.00;60390.16;4868784;29;20813;-74
2023/03/12 02:28:22;;;;;;;6.90;6.28;;;;;;;-142.70;100.00;60390.16;4868913;29;20025;-75
2023/03/12 02:30:50;;;;;;;7.75;6.03;;;;;;;-142.70;100.00;60390.16;4870547;29;20033;-74
2023/03/12 02:33:16;;;;;;;6.93;6.32;;;;;;;-142.70;100.00;60390.16;4887069;29;20028;-75
2023/03/12 02:35:42;;;;;;;7.60;6.95;;;;;;;-142.70;100.00;60390.16;4872290;29;20087;-75
2023/03/12 02:38:46;;;;;;;7.25;6.47;;;;;;;-142.70;100.00;60390.16;4871665;29;20036;-74
2023/03/12 02:41:30;;;;;;;6.40;6.00;;;;;;;-142.70;100.00;60390.16;4887124;29;20040;-74
2023/03/12 02:44:19;;;;;;;9.20;6.57;;;;;;;-142.70;100.00;60390.16;4872329;29;20036;-75
2023/03/12 02:46:48;;;;;;;10.10;7.57;;;;;;;-142.70;100.00;60390.16;4901297;29;20115;-74
2023/03/12 02:49:14;;;;;;;10.02;6.82;;;;;;;-142.70;100.00;60390.16;4876904;29;20048;-74
2023/03/12 02:51:41;;;;;;;7.30;6.70;;;;;;;-142.70;100.00;60390.16;4871785;29;20054;-74
2023/03/12 02:54:06;;;;;;;9.60;6.60;;;;;;;-142.70;100.00;60390.16;4886838;29;20398;-73
2023/03/12 02:56:32;;;;;;;7.10;6.45;;;;;;;-142.70;100.00;60390.16;4872358;29;20494;-74
2023/03/12 02:58:58;;;;;;;7.93;7.32;;;;;;;-142.70;100.00;60390.16;4886855;29;20091;-74
2023/03/12 03:01:24;;;;;;;7.65;6.60;;;;;;;-142.70;100.00;60390.16;4872147;29;20040;-74
2023/03/12 03:03:49;;;;;;;8.45;7.25;;;;;;;-142.70;100.00;60390.16;4889224;29;20080;-74
2023/03/12 03:06:16;;;;;;;7.03;6.50;;;;;;;-142.70;100.00;60390.16;4891448;29;20051;-75
2023/03/12 03:08:41;;;;;;;7.63;6.80;;;;;;;-142.70;100.00;60390.16;4875070;29;20480;-75
2023/03/12 03:11:08;;;;;;;8.95;6.50;;;;;;;-142.70;100.00;60390.16;4891083;29;20087;-74
2023/03/12 03:13:33;;;;;;;8.32;7.13;;;;;;;-142.70;100.00;60390.16;4891199;29;20673;-75
2023/03/12 03:16:00;;;;;;;11.07;7.88;;;;;;;-142.70;100.00;60390.16;4890284;29;20048;-74
2023/03/12 03:18:27;;;;;;;7.03;6.43;;;;;;;-142.70;100.00;60390.16;4891526;29;20032;-74
2023/03/12 03:21:19;;;;;;;12.43;6.47;;;;;;;-142.70;100.00;60390.16;4874245;29;20095;-74
2023/03/12 03:23:46;;;;;;;7.00;6.30;;;;;;;-142.70;100.00;60390.16;4889624;29;20127;-74
2023/03/12 03:26:12;;;;;;;8.02;6.30;;;;;;;-142.70;100.00;60390.16;4892965;29;20042;-74
2023/03/12 03:28:38;;;;;;;7.40;5.90;;;;;;;-142.70;100.00;60390.16;4897528;29;20084;-74
2023/03/12 03:31:04;;;;;;;6.78;5.70;;;;;;;-142.70;100.00;60390.16;4888171;29;20162;-75
2023/03/12 03:33:31;;;;;;;5.97;5.32;;;;;;;-142.70;100.00;60390.16;4907118;29;20043;-74
2023/03/12 03:35:58;;;;;;;6.13;5.50;;;;;;;-142.70;100.00;60390.16;4890869;29;20118;-73
2023/03/12 03:38:25;;;;;;;8.80;5.32;;;;;;;-142.70;100.00;60390.16;4906764;29;20197;-74
2023/03/12 03:40:51;;;;;;;8.82;5.78;;;;;;;-142.70;100.00;60390.16;4875393;29;20062;-74
2023/03/12 03:43:16;;;;;;;6.78;5.15;;;;;;;-142.70;100.00;60390.16;4889887;29;20553;-74
2023/03/12 03:45:43;;;;;;;6.05;5.50;;;;;;;-142.70;100.00;60390.16;4907718;29;20039;-74
2023/03/12 03:48:10;;;;;;;6.00;4.82;;;;;;;-142.70;100.00;60390.16;4894733;29;20063;-73
2023/03/12 03:50:36;;;;;;;6.10;4.95;;;;;;;-142.70;100.00;60390.16;4905071;29;20032;-75
2023/03/12 03:53:02;;;;;;;8.13;4.97;;;;;;;-142.70;100.00;60390.16;4908189;29;20576;-74
2023/03/12 03:55:28;;;;;;;5.30;4.80;;;;;;;-142.70;100.00;60390.16;4906390;29;20071;-74
2023/03/12 03:57:53;;;;;;;5.18;4.78;;;;;;;-142.70;100.00;60390.16;4906598;29;20059;-75
2023/03/12 04:00:18;;;;;;;5.60;5.10;;;;;;;-142.70;100.00;60390.16;4889133;29;20036;-74
2023/03/12 04:02:44;;;;;;;6.53;5.15;;;;;;;-142.70;100.00;60390.16;4890808;29;20032;-74
2023/03/12 04:05:10;;;;;;;5.57;5.05;;;;;;;-142.70;100.00;60390.16;4890146;29;20139;-74
2023/03/12 04:07:36;;;;;;;6.78;4.97;;;;;;;-142.70;100.00;60390.16;4890308;29;20035;-74
2023/03/12 04:10:03;;;;;;;7.05;5.22;;;;;;;-142.70;100.00;60390.16;4890331;29;20503;-74
2023/03/12 04:12:28;;;;;;;5.43;4.97;;;;;;;-142.70;100.00;60390.16;4873665;29;20043;-73
2023/03/12 04:14:54;;;;;;;5.90;5.43;;;;;;;-142.70;100.00;60390.16;4907108;29;20032;-75
2023/03/12 04:17:20;;;;;;;7.00;4.50;;;;;;;-142.70;100.00;60390.16;4889068;29;20482;-75
2023/03/12 04:19:46;;;;;;;7.43;5.15;;;;;;;-142.70;100.00;60390.16;4874522;29;20055;-74
2023/03/12 04:22:11;;;;;;;5.85;4.90;;;;;;;-142.70;100.00;60390.16;4889562;29;20099;-74
2023/03/12 04:24:37;;;;;;;5.25;4.75;;;;;;;-142.70;100.00;60390.16;4874197;29;20041;-75
2023/03/12 04:27:02;;;;;;;5.53;5.07;;;;;;;-142.70;100.00;60390.16;4890158;29;20115;-74
2023/03/12 04:29:28;;;;;;;9.27;5.30;;;;;;;-142.70;100.00;60390.16;4888855;29;20580;-75
2023/03/12 04:31:53;;;;;;;7.32;5.93;;;;;;;-142.70;100.00;60390.16;4874561;29;20028;-75
2023/03/12 04:34:19;;;;;;;5.72;5.00;;;;;;;-142.70;100.00;60390.16;4873342;29;20047;-74
2023/03/12 04:36:45;;;;;;;6.63;5.03;;;;;;;-142.70;100.00;60390.16;4874206;29;20502;-76
2023/03/12 04:39:11;;;;;;;7.97;5.53;;;;;;;-142.70;100.00;60390.16;4889360;29;20083;-74
2023/03/12 04:41:37;;;;;;;8.65;5.60;;;;;;;-142.70;100.00;60390.16;4868276;29;20032;-75
2023/03/12 04:44:03;;;;;;;7.28;5.38;;;;;;;-142.70;100.00;60390.16;4881716;29;20040;-75
2023/03/12 04:46:28;;;;;;;7.20;5.40;;;;;;;-142.70;100.00;60390.16;4889463;29;20508;-75
2023/03/12 04:48:54;;;;;;;5.93;4.90;;;;;;;-142.70;100.00;60390.16;4879287;29;20027;-75
2023/03/12 04:51:19;;;;;;;6.38;4.78;;;;;;;-142.70;100.00;60390.16;4873381;29;20134;-75
2023/03/12 04:53:45;;;;;;;8.63;5.63;;;;;;;-142.70;100.00;60390.16;4889595;29;20030;-75
2023/03/12 04:56:11;;;;;;;6.00;5.50;;;;;;;-142.70;100.00;60390.16;4888848;29;20116;-75
2023/03/12 04:58:36;;;;;;;6.57;5.97;;;;;;;-142.70;100.00;60390.16;4889495;29;20175;-75
2023/03/12 05:01:02;;;;;;;6.63;5.90;;;;;;;-142.70;100.00;60390.16;4888548;29;20028;-75
2023/03/12 05:03:28;;;;;;;6.47;5.80;;;;;;;-142.70;100.00;60390.16;4874020;29;20134;-75
2023/03/12 05:05:53;;;;;;;6.70;5.90;;;;;;;-142.70;100.00;60390.16;4889160;29;20439;-75
2023/03/12 05:08:19;;;;;;;9.38;5.47;;;;;;;-142.70;100.00;60390.16;4873361;29;20040;-75
2023/03/12 05:10:45;;;;;;;6.43;4.60;;;;;;;-142.70;100.00;60390.16;4888940;29;20031;-73
2023/03/12 05:13:21;;;;;;;4.07;3.40;;;;;;;-142.70;100.00;60390.16;4888533;29;20413;-75
2023/03/12 05:15:49;;;;;;;4.03;3.63;;;;;;;-142.70;100.00;60390.16;4889157;29;20213;-75
2023/03/12 05:18:15;;;;;;;4.68;3.58;;;;;;;-142.70;100.00;60390.16;4873106;29;20043;-75
2023/03/12 05:20:40;;;;;;;4.28;3.13;;;;;;;-142.70;100.00;60390.16;4885415;29;20048;-75
2023/03/12 05:23:06;;;;;;;5.32;3.05;;;;;;;-142.70;100.00;60390.16;4885754;29;20573;-75
2023/03/12 05:25:31;;;;;;;9.32;3.25;;;;;;;-142.70;100.00;60390.16;4884983;29;20056;-75
2023/03/12 05:27:56;;;;;;;5.75;2.70;;;;;;;-142.70;100.00;60390.16;4870057;29;20055;-75
2023/03/12 05:30:22;;;;;;;3.00;2.47;;;;;;;-142.70;100.00;60390.16;4884704;29;20040;-75
2023/03/12 05:32:47;;;;;;;3.15;2.80;;;;;;;-142.70;100.00;60390.16;4885816;29;20111;-75
2023/03/12 05:35:13;;;;;;;4.47;2.40;;;;;;;-142.70;100.00;60390.16;4886174;29;20040;-75
2023/03/12 05:37:41;;;;;;;5.10;2.42;;;;;;;-142.70;100.00;60390.16;4885753;29;20111;-75
2023/03/12 05:40:11;;;;;;;4.65;2.35;;;;;;;-142.70;100.00;60390.16;4884697;29;20024;-75
2023/03/12 05:42:36;;;;;;;3.80;2.38;;;;;;;-142.70;100.00;60390.16;4873935;29;20097;-75
2023/03/12 05:45:03;;;;;;;3.65;2.38;;;;;;;-142.70;100.00;60390.16;4886996;29;20021;-75
2023/03/12 05:47:29;;;;;;;2.22;2.03;;;;;;;-142.70;100.00;60390.16;4876942;29;20044;-75
2023/03/12 05:49:54;;;;;;;5.53;2.20;;;;;;;-142.70;100.00;60390.16;4896037;29;20024;-75
2023/03/12 05:52:21;;;;;;;2.63;1.95;;;;;;;-142.70;100.00;60390.16;4886151;29;20499;-74
2023/03/12 05:54:46;;;;;;;4.70;2.10;;;;;;;-142.70;100.00;60390.16;4886854;29;20131;-75
2023/03/12 05:57:12;;;;;;;3.20;2.10;;;;;;;-142.70;100.00;60390.16;4885636;29;20107;-74
2023/03/12 05:59:39;;;;;;;3.20;2.05;;;;;;;-142.70;100.00;60390.16;4885560;29;20032;-74
2023/03/12 06:02:04;;;;;;;2.40;2.00;;;;;;;-142.70;100.00;60390.16;4886036;29;20040;-75
2023/03/12 06:04:30;;;;;;;3.97;2.83;;;;;;;-142.70;100.00;60390.16;4884945;29;20084;-76
2023/03/12 06:06:55;;;;;;;4.72;2.60;;;;;;;-142.70;100.00;60390.16;4884876;29;20024;-74
2023/03/12 06:09:20;;;;;;;3.72;2.63;;;;;;;-142.70;100.00;60390.16;4884442;29;20031;-75
2023/03/12 06:11:46;;;;;;;4.30;2.95;;;;;;;-142.70;100.00;60390.16;4884890;29;20028;-75
2023/03/12 06:14:12;;;;;;;2.90;2.70;;;;;;;-142.70;100.00;60390.16;4868202;29;20055;-75
2023/03/12 06:16:37;;;;;;;3.85;3.55;;;;;;;-142.70;100.00;60390.16;4885298;29;20033;-74
2023/03/12 06:19:03;;;;;;;2.60;2.40;;;;;;;-142.70;100.00;60390.16;4890624;29;20114;-74
2023/03/12 06:21:31;;;;;;;2.53;2.33;;;;;;;-142.70;100.00;60390.16;4888231;29;20028;-75
2023/03/12 06:23:57;;;;;;;5.55;5.05;;;;;;;-142.70;100.00;60390.16;4887566;29;20032;-75
2023/03/12 06:26:23;;;;;;;3.55;2.55;;;;;;;-142.70;100.00;60390.16;4871669;29;20087;-74
2023/03/12 06:28:49;;;;;;;4.28;2.35;;;;;;;-142.70;100.00;60390.16;4872399;29;20486;-73
2023/03/12 06:31:16;;;;;;;2.38;2.17;;;;;;;-142.70;100.00;60390.16;4886798;29;20489;-73
2023/03/12 06:33:41;;;;;;;2.50;2.30;;;;;;;-142.70;100.00;60390.16;4888352;29;20032;-75
2023/03/12 06:36:09;;;;;;;2.50;2.30;;;;;;;-142.70;100.00;60390.16;4885980;29;20144;-75
2023/03/12 06:38:35;;;;;;;4.57;2.20;;;;;;;-142.70;100.00;60390.16;4887626;29;20819;-74
2023/03/12 06:41:04;;;;;;;4.68;1.80;;;;;;;-142.70;100.00;60390.16;4886697;29;20288;-74
2023/03/12 06:43:30;;;;;;;2.08;1.92;;;;;;;-142.70;100.00;60390.16;4887164;29;20024;-74
2023/03/12 06:45:57;;;;;;;4.80;2.00;;;;;;;-142.70;100.00;60390.16;4887173;29;20032;-74
2023/03/12 06:48:24;;;;;;;2.95;1.90;;;;;;;-142.70;100.00;60390.16;4857238;29;20059;-75
2023/03/12 06:50:50;;;;;;;2.53;1.98;;;;;;;-142.70;100.00;60390.16;4887608;29;20123;-74
2023/03/12 06:53:16;;;;;;;2.85;1.90;;;;;;;-142.70;100.00;60390.16;4865401;29;20124;-75
2023/03/12 06:55:42;;;;;;;3.88;2.20;;;;;;;-142.70;100.00;60390.16;4864803;29;20045;-74
2023/03/12 06:58:08;;;;;;;3.58;2.13;;;;;;;-142.70;100.00;60390.16;4870995;29;20067;-76
2023/03/12 07:00:34;;;;;;;2.45;2.10;;;;;;;-142.70;100.00;60390.16;4896261;29;20110;-74
2023/03/12 07:02:59;;;;;;;2.60;1.70;;;;;;;-142.70;100.00;60390.16;4904234;29;20083;-73
2023/03/12 07:05:26;;;;;;;2.05;1.65;;;;;;;-142.70;100.00;60390.16;4864833;29;20046;-74
2023/03/12 07:07:52;;;;;;;3.47;2.40;;;;;;;-142.70;100.00;60390.16;4895503;29;20028;-75
2023/03/12 07:10:18;;;;;;;3.17;2.00;;;;;;;-142.70;100.00;60390.16;4872263;29;20100;-74
2023/03/12 07:12:45;;;;;;;2.35;2.15;;;;;;;-142.70;100.00;60390.16;4877730;29;20036;-73
2023/03/12 07:15:12;;;;;;;2.17;2.00;;;;;;;-142.70;100.00;60390.16;4896130;29;20028;-74
2023/03/12 07:17:38;;;;;;;2.47;1.90;;;;;;;-142.70;100.00;60390.16;4887151;29;20044;-72
2023/03/12 07:20:04;;;;;;;2.92;1.75;;;;;;;-142.70;100.00;60390.16;4883570;29;20152;-74
2023/03/12 07:22:29;;;;;;;2.50;2.10;;;;;;;-142.70;100.00;60390.16;4883417;29;20027;-73
2023/03/12 07:24:55;;;;;;;2.85;1.98;;;;;;;-142.70;100.00;60390.16;4870575;29;20037;-74
2023/03/12 07:27:20;;;;;;;3.10;2.42;;;;;;;-142.70;100.00;60390.16;4880377;29;20025;-74
2023/03/12 07:29:46;;;;;;;2.33;2.13;;;;;;;-142.70;100.00;60390.16;4890640;29;20033;-74
2023/03/12 07:32:12;;;;;;;2.05;1.83;;;;;;;-142.70;100.00;60390.16;4874334;29;20029;-74
2023/03/12 07:34:41;;;;;;;2.08;1.90;;;;;;;-142.70;100.00;60390.16;4883877;29;20132;-74
2023/03/12 07:37:06;;;;;;;3.00;2.00;;;;;;;-142.70;100.00;60390.16;4880200;29;20048;-74
2023/03/12 07:39:32;;;;;;;1.83;1.73;;;;;;;-142.70;100.00;60390.16;4848955;29;20739;-74
2023/03/12 07:41:57;;;;;;;2.72;1.50;;;;;;;-142.70;100.00;60390.16;4875682;29;20079;-75
2023/03/12 07:44:25;;;;;;;1.70;1.52;;;;;;;-142.70;100.00;60390.16;4884176;29;20025;-74
2023/03/12 07:46:51;;;;;;;1.67;1.58;;;;;;;-142.70;100.00;60390.16;4874724;29;20085;-74
2023/03/12 07:49:16;;;;;;;3.90;1.95;;;;;;;-142.70;100.00;60390.16;4876763;29;20033;-74
2023/03/12 07:51:42;;;;;;;2.17;1.95;;;;;;;-142.70;100.00;60390.16;4898922;29;20473;-73
2023/03/12 07:54:07;;;;;;;2.60;2.40;;;;;;;-142.70;100.00;60390.16;4871460;29;20037;-73
2023/03/12 07:56:33;;;;;;;2.50;2.30;;;;;;;-142.70;100.00;60390.16;4863674;29;20438;-73
2023/03/12 07:58:58;;;;;;;2.50;2.30;;;;;;;-142.70;100.00;60390.16;4887433;29;20025;-73
2023/03/12 08:01:30;;;;;;;2.70;2.45;;;;;;;-142.70;100.00;60390.16;4873118;29;20594;-73
2023/03/12 08:03:56;;;;;;;3.50;2.33;;;;;;;-142.70;100.00;60390.16;4894126;29;20395;-73
2023/03/12 08:06:21;;;;;;;2.63;2.35;;;;;;;-142.70;100.00;60390.16;4887346;29;21029;-73
2023/03/12 08:08:47;;;;;;;4.82;2.30;;;;;;;-142.70;100.00;60390.16;4863564;29;20049;-75
2023/03/12 08:11:12;;;;;;;2.42;2.22;;;;;;;-142.70;100.00;60390.16;4871586;29;20033;-74
2023/03/12 08:13:37;;;;;;;5.60;2.55;;;;;;;-142.70;100.00;60390.16;4881000;29;20029;-74
2023/03/12 08:16:03;;;;;;;2.00;1.90;;;;;;;-142.70;100.00;60390.16;4895776;29;20038;-74
2023/03/12 08:18:28;;;;;;;2.78;2.53;;;;;;;-142.70;100.00;60390.16;4887576;29;20040;-74
2023/03/12 08:20:54;;;;;;;2.80;2.22;;;;;;;-142.70;100.00;60390.16;4889969;29;20032;-73
2023/03/12 08:23:20;;;;;;;4.57;2.17;;;;;;;-142.70;100.00;60390.16;4889262;29;20405;-74
2023/03/12 08:25:47;;;;;;;3.13;2.60;;;;;;;-142.70;100.00;60390.16;4890507;29;20028;-74
2023/03/12 08:28:14;;;;;;;2.35;2.17;;;;;;;-142.70;100.00;60390.16;4888915;29;20473;-74
2023/03/12 08:30:49;;;;;;;2.60;2.40;;;;;;;-142.70;100.00;60390.16;4907070;29;20040;-75
2023/03/12 08:33:15;;;;;;;2.47;2.20;;;;;;;-142.70;100.00;60390.16;4873924;29;20036;-74
2023/03/12 08:35:41;;;;;;;2.50;2.30;;;;;;;-142.70;100.00;60390.16;4874092;29;20044;-73
2023/03/12 08:38:07;;;;;;;2.35;2.15;;;;;;;-142.70;100.00;60390.16;4840936;29;20726;-74
2023/03/12 08:40:32;;;;;;;2.55;2.35;;;;;;;-142.70;100.00;60390.16;4849859;29;20506;-76
2023/03/12 08:42:58;;;;;;;2.33;2.13;;;;;;;-142.70;100.00;60390.16;4897042;29;20055;-74
2023/03/12 08:45:23;;;;;;;5.80;2.30;;;;;;;-142.70;100.00;60390.16;4875593;29;20092;-74
2023/03/12 08:47:49;;;;;;;1.85;1.73;;;;;;;-142.70;100.00;60390.16;4865639;29;20143;-73
2023/03/12 08:50:20;;;;;;;1.80;1.70;;;;;;;-142.70;100.00;60390.16;4902570;29;20387;-74
2023/03/12 08:52:45;;;;;;;2.33;2.10;;;;;;;-142.70;100.00;60390.16;4887951;29;20035;-74
2023/03/12 08:55:11;;;;;;;2.78;2.58;;;;;;;-142.70;100.00;60390.16;4902178;29;20476;-74
2023/03/12 08:57:38;;;;;;;2.67;2.30;;;;;;;-142.70;100.00;60390.16;4889042;29;20028;-74
2023/03/12 09:00:08;;;;;;;3.28;2.13;;;;;;;-142.70;100.00;60390.16;4888259;29;20119;-75
2023/03/12 09:02:34;;;;;;;2.75;2.45;;;;;;;-142.70;100.00;60390.16;4873604;29;20028;-74
2023/03/12 09:04:59;;;;;;;3.22;2.10;;;;;;;-142.70;100.00;60390.16;4889676;29;20035;-73
2023/03/12 09:07:25;;;;;;;3.45;2.55;;;;;;;-142.70;100.00;60390.16;4875190;29;20028;-74
2023/03/12 09:09:50;;;;;;;3.28;2.25;;;;;;;-142.70;100.00;60390.16;4892571;29;20044;-74
2023/03/12 09:12:15;;;;;;;6.63;6.07;;;;;;;-142.70;100.00;60390.16;4906028;29;20083;-74
2023/03/12 09:14:41;;;;;;;4.20;3.80;;;;;;;-142.70;100.00;60390.16;4889054;29;20040;-74
2023/03/12 09:17:06;;;;;;;2.60;2.13;;;;;;;-142.70;100.00;60390.16;4873443;29;20024;-74
2023/03/12 09:19:32;;;;;;;3.67;1.92;;;;;;;-142.70;100.00;60390.16;4887938;29;20134;-74
2023/03/12 09:21:58;;;;;;;3.38;1.90;;;;;;;-142.70;100.00;60390.16;4889360;29;20028;-74
2023/03/12 09:24:23;;;;;;;1.67;1.58;;;;;;;-142.70;100.00;60390.16;4865932;29;20475;-75
2023/03/12 09:26:49;;;;;;;2.10;1.90;;;;;;;-142.70;100.00;60390.16;4864036;29;20044;-74
2023/03/12 09:29:14;;;;;;;2.05;1.85;;;;;;;-142.70;100.00;60390.16;4879432;29;20497;-74
2023/03/12 09:31:43;;;;;;;2.05;1.95;;;;;;;-142.70;100.00;60390.16;4867650;29;20028;-74
2023/03/12 09:34:08;;;;;;;2.47;2.17;;;;;;;-142.70;100.00;60390.16;4874922;29;20039;-74
2023/03/12 09:36:34;;;;;;;1.83;1.70;;;;;;;-142.70;100.00;60390.16;4877451;29;20521;-74
2023/03/12 09:39:01;;;;;;;2.20;1.98;;;;;;;-142.70;100.00;60390.16;4900429;29;20099;-73
2023/03/12 09:41:29;;;;;;;3.10;1.73;;;;;;;-142.70;100.00;60390.16;4876527;29;20449;-75
2023/03/12 09:44:15;;;;;;;5.43;1.85;;;;;;;-142.70;100.00;60390.16;4888994;29;20055;-74
2023/03/12 09:46:49;;;;;;;1.80;1.60;;;;;;;-142.70;100.00;60390.16;4903169;29;20115;-74
2023/03/12 09:49:21;;;;;;;2.30;1.90;;;;;;;-142.70;100.00;60390.16;4886476;29;20051;-73
2023/03/12 09:51:52;;;;;;;2.22;2.03;;;;;;;-142.70;100.00;60390.16;4886070;29;20684;-74
2023/03/12 09:54:26;;;;;;;2.20;2.00;;;;;;;-142.70;100.00;60390.16;4887870;29;20051;-74
2023/03/12 09:56:54;;;;;;;1.92;1.80;;;;;;;-142.70;100.00;60390.16;4888571;29;20498;-74
2023/03/12 09:59:19;;;;;;;1.80;1.70;;;;;;;-142.70;100.00;60390.16;4887602;29;20085;-73
2023/03/12 10:01:56;;;;;;;4.38;1.60;;;;;;;-142.70;100.00;60390.16;4905258;29;20063;-74
2023/03/12 10:04:39;;;;;;;2.60;2.40;;;;;;;-142.70;100.00;60390.16;4872360;29;20508;-73
2023/03/12 10:07:08;;;;;;;2.28;2.08;;;;;;;-142.70;100.00;60390.16;4887964;29;20391;-73
2023/03/12 10:10:11;;;;;;;2.00;1.80;;;;;;;-142.70;100.00;60390.16;4888392;29;20020;-75
2023/03/12 10:13:10;;;;;;;2.30;1.42;;;;;;;-142.70;100.00;60390.16;4904236;29;20040;-74
2023/03/12 10:15:42;;;;;;;;;;;;;;;-142.70;100.00;60390.16;4901398;29;20028;-74
2023/03/12 10:18:31;;;;;;;3.15;2.00;;;;;;;-142.70;100.00;60390.16;4896004;29;19915;-74
2023/03/12 10:21:09;;;;;;;1.88;1.73;;;;;;;-142.70;100.00;60390.16;4880828;29;20314;-74
2023/03/12 10:23:50;;;;;;;2.78;1.92;;;;;;;-142.70;100.00;60390.16;4866422;29;20029;-74
2023/03/12 10:26:31;;;;;;;2.03;1.83;;;;;;;-142.70;100.00;60390.16;4835657;29;20072;-73
2023/03/12 10:29:02;;;;;;;6.57;2.42;;;;;;;-142.70;100.00;60390.16;4860014;29;20064;-74
2023/03/12 10:31:35;;;;;;;2.15;1.95;;;;;;;-142.70;100.00;60390.16;4850907;29;20048;-74
2023/03/12 10:34:03;;;;;;;3.80;2.45;;;;;;;-142.70;100.00;60390.16;4849297;29;20033;-74
2023/03/12 10:36:39;;;;;;;1.52;1.35;;;;;;;-142.70;100.00;60390.16;4850536;29;20442;-74
2023/03/12 10:39:12;;;;;;;3.42;1.50;;;;;;;-142.70;100.00;60390.16;4865564;29;20037;-73
2023/03/12 10:41:41;;;;;;;2.22;1.40;;;;;;;-142.70;100.00;60390.16;4865544;29;20456;-73
2023/03/12 10:44:07;;;;;;;1.45;1.25;;;;;;;-142.70;100.00;60390.16;4866027;29;20033;-73
2023/03/12 10:46:36;;;;;;;1.52;1.42;;;;;;;-142.70;100.00;60390.16;4860597;29;20048;-74
2023/03/12 10:49:20;;;;;;;2.28;1.88;;;;;;;-142.70;100.00;60390.16;4853887;29;20037;-73
2023/03/12 10:51:57;;;;;;;1.58;1.48;;;;;;;-142.70;100.00;60390.16;4865149;29;20049;-74
2023/03/12 10:54:35;;;;;;;1.60;1.50;;;;;;;-142.70;100.00;60390.16;4865273;29;20116;-73
2023/03/12 10:57:01;;;;;;;3.40;1.88;;;;;;;-142.70;100.00;60390.16;4867356;29;21396;-73
2023/03/12 10:59:41;;;;;;;2.65;1.90;;;;;;;-142.70;100.00;60390.16;4849322;29;20407;-74
2023/03/12 11:02:37;;;;;;;1.70;1.52;;;;;;;-142.70;100.00;60390.16;4881272;29;20069;-72
2023/03/12 11:05:19;;;;;;;1.92;1.73;;;;;;;-142.70;100.00;60390.16;4865584;29;20484;-73
2023/03/12 11:07:44;;;;;;;2.72;1.90;;;;;;;-142.70;100.00;60390.16;4849988;29;20052;-72
2023/03/12 11:10:10;;;;;;;4.88;2.08;;;;;;;-142.70;100.00;60390.16;4854832;29;20029;-74
2023/03/12 11:12:39;;;;;;;1.83;1.67;;;;;;;-142.70;100.00;60390.16;4862918;29;20484;-74